Diva Diva — DC5671 — position and weather

sailwx.info

Track history (hours):
 
Tides and Currents Weather Stations Pressure Air Temp Water Temp Dewpoint Dewpoint Depression Visibility Wind Speed Wind Dir Waves Ship Positions

Diva Diva

Last reported at 2017-Sep-24 16:54 UTC. Time now 2017-Oct-20 19:45 UTC.
Position N 38°44' E 001°24'.
Warning: this ship's position is 26 days out of date.

Length 18 m.

Type: Ship. MMSI: 211557780.

Date/timePositionNaut miles runAvg speedWind from/ knotsBaromVisibWave heightAir tempDewpointWater temp
2017-Sep-24 16:54N 38°44' E 001°24'1 3.4
2017-Sep-24 16:29N 38°45' E 001°24'5 5.9
2017-Sep-24 15:38N 38°50' E 001°27'1 6.2
2017-Sep-24 15:29N 38°50' E 001°28'3 6.4
2017-Sep-24 14:58N 38°53' E 001°31'8 6.2
2017-Sep-24 13:37N 38°58' E 001°39'3 6.3
2017-Sep-24 13:09N 39°00' E 001°42'1 6.4
2017-Sep-24 13:00N 39°01' E 001°43'5 6.4
2017-Sep-24 12:09N 39°04' E 001°48'2 6.5
2017-Sep-24 11:55N 39°05' E 001°50'3 6.4
2017-Sep-24 11:29N 39°07' E 001°53'3 6.3
2017-Sep-24 11:00N 39°09' E 001°56'3 6.2
2017-Sep-24 10:27N 39°11' E 001°59'3 6.0
2017-Sep-24 10:00N 39°13' E 002°02'3 6.2
2017-Sep-24 09:29N 39°15' E 002°05'3 6.2
2017-Sep-24 08:59N 39°17' E 002°08'3 6.5
2017-Sep-24 08:30N 39°19' E 002°11'3 6.7
2017-Sep-24 08:00N 39°22' E 002°14'3 6.9
2017-Sep-24 07:30N 39°24' E 002°17'3 6.4
2017-Sep-24 07:00N 39°26' E 002°20'3 5.8
2017-Sep-24 06:30N 39°28' E 002°23'4 7.3
2017-Sep-24 06:00N 39°30' E 002°27'  
2017-Sep-22 01:58N 39°33' E 002°38'0 0.0
2017-Sep-22 01:28N 39°33' E 002°38'0 0.0
2017-Sep-22 00:58N 39°33' E 002°38'0 0.0
2017-Sep-22 00:28N 39°33' E 002°38'0 0.0
2017-Sep-21 23:58N 39°33' E 002°38'0 0.0
2017-Sep-21 23:28N 39°33' E 002°38'0 0.0
2017-Sep-21 22:58N 39°33' E 002°38'0 0.0
2017-Sep-21 22:28N 39°33' E 002°38'0 0.0
2017-Sep-21 21:58N 39°33' E 002°38'0 0.0
2017-Sep-21 21:28N 39°33' E 002°38'0 0.0
2017-Sep-21 20:58N 39°33' E 002°38'0 0.0
2017-Sep-21 20:28N 39°33' E 002°38'0 0.0
2017-Sep-21 19:58N 39°33' E 002°38'0 0.0
2017-Sep-21 19:28N 39°33' E 002°38'0 0.0
2017-Sep-21 18:58N 39°33' E 002°38'0 0.0
2017-Sep-21 18:28N 39°33' E 002°38'0 0.0
2017-Sep-21 17:58N 39°33' E 002°38'0 0.0
2017-Sep-21 17:28N 39°33' E 002°38'0 0.0
2017-Sep-21 16:58N 39°33' E 002°38'0 0.0
2017-Sep-21 16:28N 39°33' E 002°38'0 0.0
2017-Sep-21 15:58N 39°33' E 002°38'0 0.0
2017-Sep-21 15:28N 39°33' E 002°38'0 0.0
2017-Sep-21 14:58N 39°33' E 002°38'0 0.0
2017-Sep-21 14:28N 39°33' E 002°38'0 0.0
2017-Sep-21 13:58N 39°33' E 002°38'0 0.0
2017-Sep-21 13:28N 39°33' E 002°38'0 0.0
2017-Sep-21 12:58N 39°33' E 002°38'0 0.0
2017-Sep-21 12:28N 39°33' E 002°38'0 0.0
2017-Sep-21 11:58N 39°33' E 002°38'0 0.0
2017-Sep-21 11:28N 39°33' E 002°38'0 0.0
2017-Sep-21 10:58N 39°33' E 002°38'0 0.0
2017-Sep-21 10:28N 39°33' E 002°38'0 0.0
2017-Sep-21 09:58N 39°33' E 002°38'0 0.0
2017-Sep-21 09:28N 39°33' E 002°38'0 0.0
2017-Sep-21 08:58N 39°33' E 002°38'0 0.0
2017-Sep-21 08:28N 39°33' E 002°38'0 0.0
2017-Sep-21 07:58N 39°33' E 002°38'0 0.0
2017-Sep-20 07:18N 39°33' E 002°38'0 0.0
2017-Sep-20 07:00N 39°33' E 002°38'0 0.0
2017-Sep-20 06:30N 39°33' E 002°38'0 0.0
2017-Sep-20 06:00N 39°33' E 002°38'0 0.0
2017-Sep-19 21:03N 39°33' E 002°38'0 0.0
2017-Sep-19 21:01N 39°33' E 002°38'0 0.0
2017-Sep-19 20:27N 39°33' E 002°38'0 0.0
2017-Sep-19 20:01N 39°33' E 002°38'0 0.0
2017-Sep-19 19:31N 39°33' E 002°38'0 0.0
2017-Sep-19 19:00N 39°33' E 002°38'0 0.0
2017-Sep-19 18:31N 39°33' E 002°38'0 0.0
2017-Sep-19 18:00N 39°33' E 002°38'0 0.0
2017-Sep-19 17:31N 39°33' E 002°38'0 0.0
2017-Sep-19 17:00N 39°33' E 002°38'0 0.0
2017-Sep-19 16:31N 39°33' E 002°38'0 0.0
2017-Sep-19 16:00N 39°33' E 002°38'0 0.0
2017-Sep-19 15:31N 39°33' E 002°38'0 0.0
2017-Sep-19 15:01N 39°33' E 002°38'0 0.0
2017-Sep-19 14:30N 39°33' E 002°38'0 0.0
2017-Sep-19 14:01N 39°33' E 002°38'0 0.0
2017-Sep-19 13:30N 39°33' E 002°38'0 0.0
2017-Sep-19 13:00N 39°33' E 002°38'0 0.0
2017-Sep-19 12:31N 39°33' E 002°38'0 0.0
2017-Sep-19 12:01N 39°33' E 002°38'0 0.0
2017-Sep-19 11:31N 39°33' E 002°38'0 0.0
2017-Sep-19 11:01N 39°33' E 002°38'0 0.0
2017-Sep-19 10:31N 39°33' E 002°38'0 0.0
2017-Sep-19 10:00N 39°33' E 002°38'0 0.0
2017-Sep-19 09:28N 39°33' E 002°38'0 0.0
2017-Sep-19 09:01N 39°33' E 002°38'0 0.0
2017-Sep-19 08:31N 39°33' E 002°38'0 0.0
2017-Sep-19 08:01N 39°33' E 002°38'0 0.0
2017-Sep-19 07:31N 39°33' E 002°38'0 0.0
2017-Sep-19 07:01N 39°33' E 002°38'0 0.0
2017-Sep-19 06:31N 39°33' E 002°38'0 0.0
2017-Sep-18 19:16N 39°33' E 002°38'0 0.0
2017-Sep-18 18:58N 39°33' E 002°38'0 0.0
2017-Sep-18 18:28N 39°33' E 002°38'0 0.0
2017-Sep-18 17:58N 39°33' E 002°38'0 0.0
2017-Sep-18 17:25N 39°33' E 002°38'0 0.0
2017-Sep-18 16:58N 39°33' E 002°38'0 0.0
2017-Sep-18 16:28N 39°33' E 002°38'0 0.0
2017-Sep-18 15:58N 39°33' E 002°38'0 0.0
2017-Sep-18 15:28N 39°33' E 002°38'0 0.0
2017-Sep-18 14:58N 39°33' E 002°38'0 0.0
2017-Sep-18 14:28N 39°33' E 002°38'0 0.0
2017-Sep-18 13:58N 39°33' E 002°38'0 0.0
2017-Sep-18 13:28N 39°33' E 002°38'0 0.0
2017-Sep-18 12:58N 39°33' E 002°38'0 0.0
2017-Sep-18 12:28N 39°33' E 002°38'0 0.0
2017-Sep-18 11:58N 39°33' E 002°38'0 0.0
2017-Sep-18 11:28N 39°33' E 002°38'0 0.0
2017-Sep-18 10:58N 39°33' E 002°38'0 0.0
2017-Sep-18 10:28N 39°33' E 002°38'0 0.0
2017-Sep-18 09:58N 39°33' E 002°38'0 0.0
2017-Sep-18 09:28N 39°33' E 002°38'0 0.0
2017-Sep-18 08:58N 39°33' E 002°38'0 0.0
2017-Sep-18 08:28N 39°33' E 002°38'0 0.0
2017-Sep-18 08:00N 39°33' E 002°38'0 0.0
2017-Sep-18 07:30N 39°33' E 002°38'0 0.0
2017-Sep-18 07:00N 39°33' E 002°38'0 0.0
2017-Sep-18 06:30N 39°33' E 002°38'0 0.0
2017-Sep-18 06:00N 39°33' E 002°38'0 0.0
2017-Sep-18 05:30N 39°33' E 002°38'0 0.0
2017-Sep-18 05:00N 39°33' E 002°38'0 0.0
2017-Sep-18 04:30N 39°33' E 002°38'0 0.0
2017-Sep-18 04:00N 39°33' E 002°38'0 0.0
2017-Sep-18 03:30N 39°33' E 002°38'0 0.0
2017-Sep-18 03:00N 39°33' E 002°38'0 0.0
2017-Sep-18 02:30N 39°33' E 002°38'0 0.0
2017-Sep-18 02:00N 39°33' E 002°38'0 0.0
2017-Sep-18 01:30N 39°33' E 002°38'0 0.0
2017-Sep-18 01:00N 39°33' E 002°38'0 0.0
2017-Sep-18 00:30N 39°33' E 002°38'0 0.0
2017-Sep-18 00:00N 39°33' E 002°38'0 0.0
2017-Sep-17 23:30N 39°33' E 002°38'0 0.0
2017-Sep-17 23:00N 39°33' E 002°38'0 0.0
2017-Sep-17 22:30N 39°33' E 002°38'0 0.0
2017-Sep-17 22:00N 39°33' E 002°38'0 0.0
2017-Sep-17 21:30N 39°33' E 002°38'0 0.0
2017-Sep-17 21:00N 39°33' E 002°38'0 0.0
2017-Sep-17 20:30N 39°33' E 002°38'0 0.0
2017-Sep-17 20:00N 39°33' E 002°38'0 0.0
2017-Sep-17 19:30N 39°33' E 002°38'0 0.0
2017-Sep-17 19:00N 39°33' E 002°38'0 0.0
2017-Sep-17 18:30N 39°33' E 002°38'0 0.0
2017-Sep-17 18:00N 39°33' E 002°38'0 0.0
2017-Sep-17 17:30N 39°33' E 002°38'0 0.0
2017-Sep-17 17:00N 39°33' E 002°38'0 0.0
2017-Sep-17 16:30N 39°33' E 002°38'0 0.0
2017-Sep-17 16:00N 39°33' E 002°38'0 0.0
2017-Sep-17 15:30N 39°33' E 002°38'0 0.0
2017-Sep-17 15:00N 39°33' E 002°38'0 0.0
2017-Sep-17 14:30N 39°33' E 002°38'0 0.0
2017-Sep-17 14:00N 39°33' E 002°38'0 0.0
2017-Sep-17 13:30N 39°33' E 002°38'0 0.0
2017-Sep-17 13:00N 39°33' E 002°38'0 0.0
2017-Sep-17 12:30N 39°33' E 002°38'0 0.0
2017-Sep-17 12:00N 39°33' E 002°38'0 0.0
2017-Sep-17 11:30N 39°33' E 002°38'0 0.0
2017-Sep-17 11:00N 39°33' E 002°38'0 0.0
2017-Sep-17 10:30N 39°33' E 002°38'0 0.0
2017-Sep-17 10:00N 39°33' E 002°38'0 0.0
2017-Sep-17 09:30N 39°33' E 002°38'0 0.0
2017-Sep-17 09:00N 39°33' E 002°38'0 0.0
2017-Sep-17 08:30N 39°33' E 002°38'0 0.0
2017-Sep-17 08:00N 39°33' E 002°38'0 0.0
2017-Sep-17 07:30N 39°33' E 002°38'0 0.0
2017-Sep-17 07:00N 39°33' E 002°38'0 0.0
2017-Sep-17 06:30N 39°33' E 002°38'0 0.0
2017-Sep-17 06:00N 39°33' E 002°38'0 0.0
2017-Sep-17 05:30N 39°33' E 002°38'0 0.0
2017-Sep-17 05:00N 39°33' E 002°38'0 0.0
2017-Sep-17 04:30N 39°33' E 002°38'0 0.0
2017-Sep-17 04:00N 39°33' E 002°38'0 0.0
2017-Sep-17 03:30N 39°33' E 002°38'0 0.0
2017-Sep-17 03:00N 39°33' E 002°38'0 0.0
2017-Sep-17 02:30N 39°33' E 002°38'0 0.0
2017-Sep-17 02:00N 39°33' E 002°38'0 0.0
2017-Sep-17 01:30N 39°33' E 002°38'0 0.0
2017-Sep-17 01:00N 39°33' E 002°38'0 0.0
2017-Sep-17 00:30N 39°33' E 002°38'0 0.0
2017-Sep-17 00:00N 39°33' E 002°38'0 0.0
2017-Sep-16 23:30N 39°33' E 002°38'0 0.0
2017-Sep-16 23:00N 39°33' E 002°38'0 0.0
2017-Sep-16 22:30N 39°33' E 002°38'0 0.0
2017-Sep-16 22:00N 39°33' E 002°38'0 0.0
2017-Sep-16 21:30N 39°33' E 002°38'0 0.0
2017-Sep-16 21:00N 39°33' E 002°38'0 0.0
2017-Sep-16 20:30N 39°33' E 002°38'0 0.0
2017-Sep-16 20:00N 39°33' E 002°38'0 0.0
2017-Sep-16 19:30N 39°33' E 002°38'0 0.0
2017-Sep-16 19:00N 39°33' E 002°38'0 0.0
2017-Sep-16 18:30N 39°33' E 002°38'0 0.0
2017-Sep-16 18:00N 39°33' E 002°38'0 0.0
2017-Sep-16 17:30N 39°33' E 002°38'0 0.0
2017-Sep-16 17:00N 39°33' E 002°38'0 0.0
2017-Sep-16 16:30N 39°33' E 002°38'0 0.0
2017-Sep-16 16:00N 39°33' E 002°38'0 0.0
2017-Sep-16 15:30N 39°33' E 002°38'0 0.0
2017-Sep-16 15:00N 39°33' E 002°38'0 0.0
2017-Sep-16 14:30N 39°33' E 002°38'0 0.0
2017-Sep-16 14:00N 39°33' E 002°38'0 0.0
2017-Sep-16 13:30N 39°33' E 002°38'0 0.0
2017-Sep-16 13:00N 39°33' E 002°38'0 0.0
2017-Sep-16 12:30N 39°33' E 002°38'0 0.0
2017-Sep-16 12:00N 39°33' E 002°38'0 0.0
2017-Sep-16 11:30N 39°33' E 002°38'0 0.0
2017-Sep-16 11:00N 39°33' E 002°38'0 0.0
2017-Sep-16 10:30N 39°33' E 002°38'0 0.0
2017-Sep-16 10:00N 39°33' E 002°38'0 0.0
2017-Sep-16 09:30N 39°33' E 002°38'0 0.0
2017-Sep-16 09:00N 39°33' E 002°38'0 0.0
2017-Sep-16 08:30N 39°33' E 002°38'0 0.0
2017-Sep-16 08:00N 39°33' E 002°38'0 0.0
2017-Sep-16 07:30N 39°33' E 002°38'0 0.0
2017-Sep-16 07:00N 39°33' E 002°38'0 0.0
2017-Sep-16 06:30N 39°33' E 002°38'0 0.0
2017-Sep-16 06:00N 39°33' E 002°38'0 0.0
2017-Sep-16 05:30N 39°33' E 002°38'0 0.0
2017-Sep-16 05:00N 39°33' E 002°38'0 0.0
2017-Sep-16 04:30N 39°33' E 002°38'0 0.0
2017-Sep-16 03:54N 39°33' E 002°38'0 0.0
2017-Sep-16 03:30N 39°33' E 002°38'0 0.0
2017-Sep-16 03:00N 39°33' E 002°38'0 0.0
2017-Sep-16 02:30N 39°33' E 002°38'0 0.0
2017-Sep-16 02:00N 39°33' E 002°38'0 0.0
2017-Sep-16 01:30N 39°33' E 002°38'0 0.0
2017-Sep-16 01:00N 39°33' E 002°38'0 0.0
2017-Sep-16 00:30N 39°33' E 002°38'0 0.0
2017-Sep-16 00:00N 39°33' E 002°38'0 0.0
2017-Sep-15 23:27N 39°33' E 002°38'0 0.0
2017-Sep-15 23:00N 39°33' E 002°38'0 0.0
2017-Sep-15 22:30N 39°33' E 002°38'0 0.0
2017-Sep-15 22:00N 39°33' E 002°38'0 0.0
2017-Sep-15 21:30N 39°33' E 002°38'0 0.0
2017-Sep-15 21:00N 39°33' E 002°38'0 0.0
2017-Sep-15 20:30N 39°33' E 002°38'0 0.0
2017-Sep-15 20:00N 39°33' E 002°38'0 0.0
2017-Sep-15 19:30N 39°33' E 002°38'0 0.0
2017-Sep-15 19:00N 39°33' E 002°38'0 0.0
2017-Sep-15 18:30N 39°33' E 002°38'0 0.0
2017-Sep-15 18:00N 39°33' E 002°38'0 0.0
2017-Sep-15 17:30N 39°33' E 002°38'0 0.0
2017-Sep-15 17:00N 39°33' E 002°38'0 0.0
2017-Sep-15 16:30N 39°33' E 002°38'0 0.0
2017-Sep-15 16:00N 39°33' E 002°38'0 0.0
2017-Sep-15 15:30N 39°33' E 002°38'0 0.0
2017-Sep-15 15:00N 39°33' E 002°38'0 0.0
2017-Sep-15 14:30N 39°33' E 002°38'0 0.0
2017-Sep-15 14:00N 39°33' E 002°38'0 0.0
2017-Sep-15 13:30N 39°33' E 002°38'0 0.0
2017-Sep-15 13:00N 39°33' E 002°38'0 0.0
2017-Sep-15 12:30N 39°33' E 002°38'0 0.0
2017-Sep-15 12:00N 39°33' E 002°38'0 0.0
2017-Sep-15 11:30N 39°33' E 002°38'0 0.0
2017-Sep-15 11:00N 39°33' E 002°38'0 0.0
2017-Sep-15 10:30N 39°33' E 002°38'0 0.0
2017-Sep-15 10:00N 39°33' E 002°38'0 0.0
2017-Sep-15 09:30N 39°33' E 002°38'0 0.0
2017-Sep-15 09:00N 39°33' E 002°38'0 0.0
2017-Sep-15 08:30N 39°33' E 002°38'0 0.0
2017-Sep-15 08:00N 39°33' E 002°38'0 0.0
2017-Sep-15 07:30N 39°33' E 002°38'0 0.0
2017-Sep-15 07:00N 39°33' E 002°38'0 0.0
2017-Sep-15 06:30N 39°33' E 002°38'0 0.0
2017-Sep-15 06:00N 39°33' E 002°38'0 0.0
2017-Sep-15 05:30N 39°33' E 002°38'0 0.0
2017-Sep-15 05:00N 39°33' E 002°38'0 0.0
2017-Sep-15 04:30N 39°33' E 002°38'0 0.0
2017-Sep-15 04:00N 39°33' E 002°38'0 0.0
2017-Sep-15 03:30N 39°33' E 002°38'0 0.0
2017-Sep-15 03:00N 39°33' E 002°38'0 0.0
2017-Sep-15 02:30N 39°33' E 002°38'0 0.0
2017-Sep-15 02:00N 39°33' E 002°38'0 0.0
2017-Sep-15 01:30N 39°33' E 002°38'0 0.0
2017-Sep-15 01:00N 39°33' E 002°38'0 0.0
2017-Sep-15 00:30N 39°33' E 002°38'0 0.0
2017-Sep-15 00:00N 39°33' E 002°38'0 0.0
2017-Sep-14 23:30N 39°33' E 002°38'0 0.0
2017-Sep-14 23:00N 39°33' E 002°38'0 0.0
2017-Sep-14 22:30N 39°33' E 002°38'0 0.0
2017-Sep-14 22:00N 39°33' E 002°38'0 0.0
2017-Sep-14 21:30N 39°33' E 002°38'0 0.0
2017-Sep-14 21:00N 39°33' E 002°38'0 0.0
2017-Sep-14 20:30N 39°33' E 002°38'0 0.0
2017-Sep-14 20:00N 39°33' E 002°38'0 0.0
2017-Sep-14 19:30N 39°33' E 002°38'0 0.0
2017-Sep-14 18:57N 39°33' E 002°38'0 0.0
2017-Sep-14 18:30N 39°33' E 002°38'0 0.0
2017-Sep-14 18:00N 39°33' E 002°38'0 0.0
2017-Sep-14 17:24N 39°33' E 002°38'0 0.0
2017-Sep-14 17:00N 39°33' E 002°38'  
Track history (hours):
 
Tides and Currents Weather Stations Pressure Air Temp Water Temp Dewpoint Dewpoint Depression Visibility Wind Speed Wind Dir Waves Ship Positions

Diva Diva

Last reported at 2017-Sep-24 16:54 UTC. Time now 2017-Oct-20 19:45 UTC.
Position N 38°44' E 001°24'.
Warning: this ship's position is 26 days out of date.

Length 18 m.

Type: Ship. MMSI: 211557780.

Date/timePositionNaut miles runAvg speedWind from/ knotsBaromVisibWave heightAir tempDewpointWater temp
2017-Sep-24 16:54N 38°44' E 001°24'1 3.4
2017-Sep-24 16:29N 38°45' E 001°24'5 5.9
2017-Sep-24 15:38N 38°50' E 001°27'1 6.2
2017-Sep-24 15:29N 38°50' E 001°28'3 6.4
2017-Sep-24 14:58N 38°53' E 001°31'8 6.2
2017-Sep-24 13:37N 38°58' E 001°39'3 6.3
2017-Sep-24 13:09N 39°00' E 001°42'1 6.4
2017-Sep-24 13:00N 39°01' E 001°43'5 6.4
2017-Sep-24 12:09N 39°04' E 001°48'2 6.5
2017-Sep-24 11:55N 39°05' E 001°50'3 6.4
2017-Sep-24 11:29N 39°07' E 001°53'3 6.3
2017-Sep-24 11:00N 39°09' E 001°56'3 6.2
2017-Sep-24 10:27N 39°11' E 001°59'3 6.0
2017-Sep-24 10:00N 39°13' E 002°02'3 6.2
2017-Sep-24 09:29N 39°15' E 002°05'3 6.2
2017-Sep-24 08:59N 39°17' E 002°08'3 6.5
2017-Sep-24 08:30N 39°19' E 002°11'3 6.7
2017-Sep-24 08:00N 39°22' E 002°14'3 6.9
2017-Sep-24 07:30N 39°24' E 002°17'3 6.4
2017-Sep-24 07:00N 39°26' E 002°20'3 5.8
2017-Sep-24 06:30N 39°28' E 002°23'4 7.3
2017-Sep-24 06:00N 39°30' E 002°27'  
2017-Sep-22 01:58N 39°33' E 002°38'0 0.0
2017-Sep-22 01:28N 39°33' E 002°38'0 0.0
2017-Sep-22 00:58N 39°33' E 002°38'0 0.0
2017-Sep-22 00:28N 39°33' E 002°38'0 0.0
2017-Sep-21 23:58N 39°33' E 002°38'0 0.0
2017-Sep-21 23:28N 39°33' E 002°38'0 0.0
2017-Sep-21 22:58N 39°33' E 002°38'0 0.0
2017-Sep-21 22:28N 39°33' E 002°38'0 0.0
2017-Sep-21 21:58N 39°33' E 002°38'0 0.0
2017-Sep-21 21:28N 39°33' E 002°38'0 0.0
2017-Sep-21 20:58N 39°33' E 002°38'0 0.0
2017-Sep-21 20:28N 39°33' E 002°38'0 0.0
2017-Sep-21 19:58N 39°33' E 002°38'0 0.0
2017-Sep-21 19:28N 39°33' E 002°38'0 0.0
2017-Sep-21 18:58N 39°33' E 002°38'0 0.0
2017-Sep-21 18:28N 39°33' E 002°38'0 0.0
2017-Sep-21 17:58N 39°33' E 002°38'0 0.0
2017-Sep-21 17:28N 39°33' E 002°38'0 0.0
2017-Sep-21 16:58N 39°33' E 002°38'0 0.0
2017-Sep-21 16:28N 39°33' E 002°38'0 0.0
2017-Sep-21 15:58N 39°33' E 002°38'0 0.0
2017-Sep-21 15:28N 39°33' E 002°38'0 0.0
2017-Sep-21 14:58N 39°33' E 002°38'0 0.0
2017-Sep-21 14:28N 39°33' E 002°38'0 0.0
2017-Sep-21 13:58N 39°33' E 002°38'0 0.0
2017-Sep-21 13:28N 39°33' E 002°38'0 0.0
2017-Sep-21 12:58N 39°33' E 002°38'0 0.0
2017-Sep-21 12:28N 39°33' E 002°38'0 0.0
2017-Sep-21 11:58N 39°33' E 002°38'0 0.0
2017-Sep-21 11:28N 39°33' E 002°38'0 0.0
2017-Sep-21 10:58N 39°33' E 002°38'0 0.0
2017-Sep-21 10:28N 39°33' E 002°38'0 0.0
2017-Sep-21 09:58N 39°33' E 002°38'0 0.0
2017-Sep-21 09:28N 39°33' E 002°38'0 0.0
2017-Sep-21 08:58N 39°33' E 002°38'0 0.0
2017-Sep-21 08:28N 39°33' E 002°38'0 0.0
2017-Sep-21 07:58N 39°33' E 002°38'0 0.0
2017-Sep-20 07:18N 39°33' E 002°38'0 0.0
2017-Sep-20 07:00N 39°33' E 002°38'0 0.0
2017-Sep-20 06:30N 39°33' E 002°38'0 0.0
2017-Sep-20 06:00N 39°33' E 002°38'0 0.0
2017-Sep-19 21:03N 39°33' E 002°38'0 0.0
2017-Sep-19 21:01N 39°33' E 002°38'0 0.0
2017-Sep-19 20:27N 39°33' E 002°38'0 0.0
2017-Sep-19 20:01N 39°33' E 002°38'0 0.0
2017-Sep-19 19:31N 39°33' E 002°38'0 0.0
2017-Sep-19 19:00N 39°33' E 002°38'0 0.0
2017-Sep-19 18:31N 39°33' E 002°38'0 0.0
2017-Sep-19 18:00N 39°33' E 002°38'0 0.0
2017-Sep-19 17:31N 39°33' E 002°38'0 0.0
2017-Sep-19 17:00N 39°33' E 002°38'0 0.0
2017-Sep-19 16:31N 39°33' E 002°38'0 0.0
2017-Sep-19 16:00N 39°33' E 002°38'0 0.0
2017-Sep-19 15:31N 39°33' E 002°38'0 0.0
2017-Sep-19 15:01N 39°33' E 002°38'0 0.0
2017-Sep-19 14:30N 39°33' E 002°38'0 0.0
2017-Sep-19 14:01N 39°33' E 002°38'0 0.0
2017-Sep-19 13:30N 39°33' E 002°38'0 0.0
2017-Sep-19 13:00N 39°33' E 002°38'0 0.0
2017-Sep-19 12:31N 39°33' E 002°38'0 0.0
2017-Sep-19 12:01N 39°33' E 002°38'0 0.0
2017-Sep-19 11:31N 39°33' E 002°38'0 0.0
2017-Sep-19 11:01N 39°33' E 002°38'0 0.0
2017-Sep-19 10:31N 39°33' E 002°38'0 0.0
2017-Sep-19 10:00N 39°33' E 002°38'0 0.0
2017-Sep-19 09:28N 39°33' E 002°38'0 0.0
2017-Sep-19 09:01N 39°33' E 002°38'0 0.0
2017-Sep-19 08:31N 39°33' E 002°38'0 0.0
2017-Sep-19 08:01N 39°33' E 002°38'0 0.0
2017-Sep-19 07:31N 39°33' E 002°38'0 0.0
2017-Sep-19 07:01N 39°33' E 002°38'0 0.0
2017-Sep-19 06:31N 39°33' E 002°38'0 0.0
2017-Sep-18 19:16N 39°33' E 002°38'0 0.0
2017-Sep-18 18:58N 39°33' E 002°38'0 0.0
2017-Sep-18 18:28N 39°33' E 002°38'0 0.0
2017-Sep-18 17:58N 39°33' E 002°38'0 0.0
2017-Sep-18 17:25N 39°33' E 002°38'0 0.0
2017-Sep-18 16:58N 39°33' E 002°38'0 0.0
2017-Sep-18 16:28N 39°33' E 002°38'0 0.0
2017-Sep-18 15:58N 39°33' E 002°38'0 0.0
2017-Sep-18 15:28N 39°33' E 002°38'0 0.0
2017-Sep-18 14:58N 39°33' E 002°38'0 0.0
2017-Sep-18 14:28N 39°33' E 002°38'0 0.0
2017-Sep-18 13:58N 39°33' E 002°38'0 0.0
2017-Sep-18 13:28N 39°33' E 002°38'0 0.0
2017-Sep-18 12:58N 39°33' E 002°38'0 0.0
2017-Sep-18 12:28N 39°33' E 002°38'0 0.0
2017-Sep-18 11:58N 39°33' E 002°38'0 0.0
2017-Sep-18 11:28N 39°33' E 002°38'0 0.0
2017-Sep-18 10:58N 39°33' E 002°38'0 0.0
2017-Sep-18 10:28N 39°33' E 002°38'0 0.0
2017-Sep-18 09:58N 39°33' E 002°38'0 0.0
2017-Sep-18 09:28N 39°33' E 002°38'0 0.0
2017-Sep-18 08:58N 39°33' E 002°38'0 0.0
2017-Sep-18 08:28N 39°33' E 002°38'0 0.0
2017-Sep-18 08:00N 39°33' E 002°38'0 0.0
2017-Sep-18 07:30N 39°33' E 002°38'0 0.0
2017-Sep-18 07:00N 39°33' E 002°38'0 0.0
2017-Sep-18 06:30N 39°33' E 002°38'0 0.0
2017-Sep-18 06:00N 39°33' E 002°38'0 0.0
2017-Sep-18 05:30N 39°33' E 002°38'0 0.0
2017-Sep-18 05:00N 39°33' E 002°38'0 0.0
2017-Sep-18 04:30N 39°33' E 002°38'0 0.0
2017-Sep-18 04:00N 39°33' E 002°38'0 0.0
2017-Sep-18 03:30N 39°33' E 002°38'0 0.0
2017-Sep-18 03:00N 39°33' E 002°38'0 0.0
2017-Sep-18 02:30N 39°33' E 002°38'0 0.0
2017-Sep-18 02:00N 39°33' E 002°38'0 0.0
2017-Sep-18 01:30N 39°33' E 002°38'0 0.0
2017-Sep-18 01:00N 39°33' E 002°38'0 0.0
2017-Sep-18 00:30N 39°33' E 002°38'0 0.0
2017-Sep-18 00:00N 39°33' E 002°38'0 0.0
2017-Sep-17 23:30N 39°33' E 002°38'0 0.0
2017-Sep-17 23:00N 39°33' E 002°38'0 0.0
2017-Sep-17 22:30N 39°33' E 002°38'0 0.0
2017-Sep-17 22:00N 39°33' E 002°38'0 0.0
2017-Sep-17 21:30N 39°33' E 002°38'0 0.0
2017-Sep-17 21:00N 39°33' E 002°38'0 0.0
2017-Sep-17 20:30N 39°33' E 002°38'0 0.0
2017-Sep-17 20:00N 39°33' E 002°38'0 0.0
2017-Sep-17 19:30N 39°33' E 002°38'0 0.0
2017-Sep-17 19:00N 39°33' E 002°38'0 0.0
2017-Sep-17 18:30N 39°33' E 002°38'0 0.0
2017-Sep-17 18:00N 39°33' E 002°38'0 0.0
2017-Sep-17 17:30N 39°33' E 002°38'0 0.0
2017-Sep-17 17:00N 39°33' E 002°38'0 0.0
2017-Sep-17 16:30N 39°33' E 002°38'0 0.0
2017-Sep-17 16:00N 39°33' E 002°38'0 0.0
2017-Sep-17 15:30N 39°33' E 002°38'0 0.0
2017-Sep-17 15:00N 39°33' E 002°38'0 0.0
2017-Sep-17 14:30N 39°33' E 002°38'0 0.0
2017-Sep-17 14:00N 39°33' E 002°38'0 0.0
2017-Sep-17 13:30N 39°33' E 002°38'0 0.0
2017-Sep-17 13:00N 39°33' E 002°38'0 0.0
2017-Sep-17 12:30N 39°33' E 002°38'0 0.0
2017-Sep-17 12:00N 39°33' E 002°38'0 0.0
2017-Sep-17 11:30N 39°33' E 002°38'0 0.0
2017-Sep-17 11:00N 39°33' E 002°38'0 0.0
2017-Sep-17 10:30N 39°33' E 002°38'0 0.0
2017-Sep-17 10:00N 39°33' E 002°38'0 0.0
2017-Sep-17 09:30N 39°33' E 002°38'0 0.0
2017-Sep-17 09:00N 39°33' E 002°38'0 0.0
2017-Sep-17 08:30N 39°33' E 002°38'0 0.0
2017-Sep-17 08:00N 39°33' E 002°38'0 0.0
2017-Sep-17 07:30N 39°33' E 002°38'0 0.0
2017-Sep-17 07:00N 39°33' E 002°38'0 0.0
2017-Sep-17 06:30N 39°33' E 002°38'0 0.0
2017-Sep-17 06:00N 39°33' E 002°38'0 0.0
2017-Sep-17 05:30N 39°33' E 002°38'0 0.0
2017-Sep-17 05:00N 39°33' E 002°38'0 0.0
2017-Sep-17 04:30N 39°33' E 002°38'0 0.0
2017-Sep-17 04:00N 39°33' E 002°38'0 0.0
2017-Sep-17 03:30N 39°33' E 002°38'0 0.0
2017-Sep-17 03:00N 39°33' E 002°38'0 0.0
2017-Sep-17 02:30N 39°33' E 002°38'0 0.0
2017-Sep-17 02:00N 39°33' E 002°38'0 0.0
2017-Sep-17 01:30N 39°33' E 002°38'0 0.0
2017-Sep-17 01:00N 39°33' E 002°38'0 0.0
2017-Sep-17 00:30N 39°33' E 002°38'0 0.0
2017-Sep-17 00:00N 39°33' E 002°38'0 0.0
2017-Sep-16 23:30N 39°33' E 002°38'0 0.0
2017-Sep-16 23:00N 39°33' E 002°38'0 0.0
2017-Sep-16 22:30N 39°33' E 002°38'0 0.0
2017-Sep-16 22:00N 39°33' E 002°38'0 0.0
2017-Sep-16 21:30N 39°33' E 002°38'0 0.0
2017-Sep-16 21:00N 39°33' E 002°38'0 0.0
2017-Sep-16 20:30N 39°33' E 002°38'0 0.0
2017-Sep-16 20:00N 39°33' E 002°38'0 0.0
2017-Sep-16 19:30N 39°33' E 002°38'0 0.0
2017-Sep-16 19:00N 39°33' E 002°38'0 0.0
2017-Sep-16 18:30N 39°33' E 002°38'0 0.0
2017-Sep-16 18:00N 39°33' E 002°38'0 0.0
2017-Sep-16 17:30N 39°33' E 002°38'0 0.0
2017-Sep-16 17:00N 39°33' E 002°38'0 0.0
2017-Sep-16 16:30N 39°33' E 002°38'0 0.0
2017-Sep-16 16:00N 39°33' E 002°38'0 0.0
2017-Sep-16 15:30N 39°33' E 002°38'0 0.0
2017-Sep-16 15:00N 39°33' E 002°38'0 0.0
2017-Sep-16 14:30N 39°33' E 002°38'0 0.0
2017-Sep-16 14:00N 39°33' E 002°38'0 0.0
2017-Sep-16 13:30N 39°33' E 002°38'0 0.0
2017-Sep-16 13:00N 39°33' E 002°38'0 0.0
2017-Sep-16 12:30N 39°33' E 002°38'0 0.0
2017-Sep-16 12:00N 39°33' E 002°38'0 0.0
2017-Sep-16 11:30N 39°33' E 002°38'0 0.0
2017-Sep-16 11:00N 39°33' E 002°38'0 0.0
2017-Sep-16 10:30N 39°33' E 002°38'0 0.0
2017-Sep-16 10:00N 39°33' E 002°38'0 0.0
2017-Sep-16 09:30N 39°33' E 002°38'0 0.0
2017-Sep-16 09:00N 39°33' E 002°38'0 0.0
2017-Sep-16 08:30N 39°33' E 002°38'0 0.0
2017-Sep-16 08:00N 39°33' E 002°38'0 0.0
2017-Sep-16 07:30N 39°33' E 002°38'0 0.0
2017-Sep-16 07:00N 39°33' E 002°38'0 0.0
2017-Sep-16 06:30N 39°33' E 002°38'0 0.0
2017-Sep-16 06:00N 39°33' E 002°38'0 0.0
2017-Sep-16 05:30N 39°33' E 002°38'0 0.0
2017-Sep-16 05:00N 39°33' E 002°38'0 0.0
2017-Sep-16 04:30N 39°33' E 002°38'0 0.0
2017-Sep-16 03:54N 39°33' E 002°38'0 0.0
2017-Sep-16 03:30N 39°33' E 002°38'0 0.0
2017-Sep-16 03:00N 39°33' E 002°38'0 0.0
2017-Sep-16 02:30N 39°33' E 002°38'0 0.0
2017-Sep-16 02:00N 39°33' E 002°38'0 0.0
2017-Sep-16 01:30N 39°33' E 002°38'0 0.0
2017-Sep-16 01:00N 39°33' E 002°38'0 0.0
2017-Sep-16 00:30N 39°33' E 002°38'0 0.0
2017-Sep-16 00:00N 39°33' E 002°38'0 0.0
2017-Sep-15 23:27N 39°33' E 002°38'0 0.0
2017-Sep-15 23:00N 39°33' E 002°38'0 0.0
2017-Sep-15 22:30N 39°33' E 002°38'0 0.0
2017-Sep-15 22:00N 39°33' E 002°38'0 0.0
2017-Sep-15 21:30N 39°33' E 002°38'0 0.0
2017-Sep-15 21:00N 39°33' E 002°38'0 0.0
2017-Sep-15 20:30N 39°33' E 002°38'0 0.0
2017-Sep-15 20:00N 39°33' E 002°38'0 0.0
2017-Sep-15 19:30N 39°33' E 002°38'0 0.0
2017-Sep-15 19:00N 39°33' E 002°38'0 0.0
2017-Sep-15 18:30N 39°33' E 002°38'0 0.0
2017-Sep-15 18:00N 39°33' E 002°38'0 0.0
2017-Sep-15 17:30N 39°33' E 002°38'0 0.0
2017-Sep-15 17:00N 39°33' E 002°38'0 0.0
2017-Sep-15 16:30N 39°33' E 002°38'0 0.0
2017-Sep-15 16:00N 39°33' E 002°38'0 0.0
2017-Sep-15 15:30N 39°33' E 002°38'0 0.0
2017-Sep-15 15:00N 39°33' E 002°38'0 0.0
2017-Sep-15 14:30N 39°33' E 002°38'0 0.0
2017-Sep-15 14:00N 39°33' E 002°38'0 0.0
2017-Sep-15 13:30N 39°33' E 002°38'0 0.0
2017-Sep-15 13:00N 39°33' E 002°38'0 0.0
2017-Sep-15 12:30N 39°33' E 002°38'0 0.0
2017-Sep-15 12:00N 39°33' E 002°38'0 0.0
2017-Sep-15 11:30N 39°33' E 002°38'0 0.0
2017-Sep-15 11:00N 39°33' E 002°38'0 0.0
2017-Sep-15 10:30N 39°33' E 002°38'0 0.0
2017-Sep-15 10:00N 39°33' E 002°38'0 0.0
2017-Sep-15 09:30N 39°33' E 002°38'0 0.0
2017-Sep-15 09:00N 39°33' E 002°38'0 0.0
2017-Sep-15 08:30N 39°33' E 002°38'0 0.0
2017-Sep-15 08:00N 39°33' E 002°38'0 0.0
2017-Sep-15 07:30N 39°33' E 002°38'0 0.0
2017-Sep-15 07:00N 39°33' E 002°38'0 0.0
2017-Sep-15 06:30N 39°33' E 002°38'0 0.0
2017-Sep-15 06:00N 39°33' E 002°38'0 0.0
2017-Sep-15 05:30N 39°33' E 002°38'0 0.0
2017-Sep-15 05:00N 39°33' E 002°38'0 0.0
2017-Sep-15 04:30N 39°33' E 002°38'0 0.0
2017-Sep-15 04:00N 39°33' E 002°38'0 0.0
2017-Sep-15 03:30N 39°33' E 002°38'0 0.0
2017-Sep-15 03:00N 39°33' E 002°38'0 0.0
2017-Sep-15 02:30N 39°33' E 002°38'0 0.0
2017-Sep-15 02:00N 39°33' E 002°38'0 0.0
2017-Sep-15 01:30N 39°33' E 002°38'0 0.0
2017-Sep-15 01:00N 39°33' E 002°38'0 0.0
2017-Sep-15 00:30N 39°33' E 002°38'0 0.0
2017-Sep-15 00:00N 39°33' E 002°38'0 0.0
2017-Sep-14 23:30N 39°33' E 002°38'0 0.0
2017-Sep-14 23:00N 39°33' E 002°38'0 0.0
2017-Sep-14 22:30N 39°33' E 002°38'0 0.0
2017-Sep-14 22:00N 39°33' E 002°38'0 0.0
2017-Sep-14 21:30N 39°33' E 002°38'0 0.0
2017-Sep-14 21:00N 39°33' E 002°38'0 0.0
2017-Sep-14 20:30N 39°33' E 002°38'0 0.0
2017-Sep-14 20:00N 39°33' E 002°38'0 0.0
2017-Sep-14 19:30N 39°33' E 002°38'0 0.0
2017-Sep-14 18:57N 39°33' E 002°38'0 0.0
2017-Sep-14 18:30N 39°33' E 002°38'0 0.0
2017-Sep-14 18:00N 39°33' E 002°38'0 0.0
2017-Sep-14 17:24N 39°33' E 002°38'0 0.0
2017-Sep-14 17:00N 39°33' E 002°38'  

Dump ship's entire track history